Time;durP1;ratioP1;P1;durP2;ratioP2;P2;SDS_P1;SDS_P2;PMS_P1;PMS_P2;Temp;Humidity;BMP_temperature;BMP_pressure;BME280_temperature;BME280_humidity;BME280_pressure;Samples;Min_cycle;Max_cycle;Signal;HPM_P1;HPM_P2
2024/01/19 00:02:11;;;;;;;18.13;11.97;;;;;;;;;;5032191;28;20220;-59
2024/01/19 00:04:39;;;;;;;19.40;13.43;;;;;;;;;;5032725;28;20684;-59
2024/01/19 00:07:06;;;;;;;23.23;13.57;;;;;;;;;;5031862;28;20212;-59
2024/01/19 00:09:33;;;;;;;13.57;11.37;;;;;;;;;;5033233;28;20683;-59
2024/01/19 00:12:02;;;;;;;20.23;14.20;;;;;;;;;;5031635;28;20279;-61
2024/01/19 00:14:29;;;;;;;20.43;12.73;;;;;;;;;;5032910;28;20748;-61
2024/01/19 00:16:56;;;;;;;21.07;12.77;;;;;;;;;;5033104;28;20246;-61
2024/01/19 00:19:24;;;;;;;20.17;13.93;;;;;;;;;;5032771;28;20271;-59
2024/01/19 00:21:51;;;;;;;20.50;13.60;;;;;;;;;;5032103;28;20251;-62
2024/01/19 00:24:18;;;;;;;21.43;14.03;;;;;;;;;;5024161;28;20350;-59
2024/01/19 00:26:47;;;;;;;20.57;14.13;;;;;;;;;;5033090;28;20199;-59
2024/01/19 00:29:16;;;;;;;20.60;13.67;;;;;;;;;;5033259;28;20210;-59
2024/01/19 00:31:47;;;;;;;23.80;14.33;;;;;;;;;;5031195;28;20645;-60
2024/01/19 00:34:15;;;;;;;21.40;14.03;;;;;;;;;;5032230;28;20208;-59
2024/01/19 00:36:43;;;;;;;26.60;14.57;;;;;;;;;;5032147;28;20213;-59
2024/01/19 00:39:10;;;;;;;18.67;12.40;;;;;;;;;;5024821;28;20201;-59
2024/01/19 00:41:38;;;;;;;24.27;15.30;;;;;;;;;;5032021;28;20273;-59
2024/01/19 00:44:06;;;;;;;24.77;14.77;;;;;;;;;;5032811;28;20703;-59
2024/01/19 00:46:35;;;;;;;21.20;13.80;;;;;;;;;;5032635;28;20232;-59
2024/01/19 00:49:02;;;;;;;20.70;14.20;;;;;;;;;;5029810;28;20263;-59
2024/01/19 00:51:29;;;;;;;19.27;14.00;;;;;;;;;;5031248;28;20200;-59
2024/01/19 00:53:56;;;;;;;22.57;13.10;;;;;;;;;;5032527;28;20200;-59
2024/01/19 00:56:23;;;;;;;24.33;15.77;;;;;;;;;;5032598;28;20199;-59
2024/01/19 00:58:51;;;;;;;20.83;14.53;;;;;;;;;;5032550;28;20254;-59
2024/01/19 01:01:18;;;;;;;21.17;14.20;;;;;;;;;;5022451;28;20207;-59
2024/01/19 01:03:48;;;;;;;26.80;15.20;;;;;;;;;;5031921;28;20274;-59
2024/01/19 01:06:15;;;;;;;22.27;14.37;;;;;;;;;;5032261;28;20202;-59
2024/01/19 01:08:42;;;;;;;21.40;14.70;;;;;;;;;;5023478;28;20202;-59
2024/01/19 01:11:10;;;;;;;22.33;15.43;;;;;;;;;;5027385;28;20202;-59
2024/01/19 01:13:37;;;;;;;21.43;13.80;;;;;;;;;;5019862;28;20292;-60
2024/01/19 01:16:04;;;;;;;23.70;15.70;;;;;;;;;;5023343;28;20222;-59
2024/01/19 01:18:31;;;;;;;28.80;15.63;;;;;;;;;;5029252;28;20800;-59
2024/01/19 01:21:01;;;;;;;23.83;15.30;;;;;;;;;;5031425;28;20676;-60
2024/01/19 01:23:28;;;;;;;23.73;14.47;;;;;;;;;;5031904;28;20624;-59
2024/01/19 01:25:55;;;;;;;25.97;14.53;;;;;;;;;;5029738;28;20673;-59
2024/01/19 01:28:23;;;;;;;25.70;14.10;;;;;;;;;;5025356;28;20253;-59
2024/01/19 01:30:50;;;;;;;22.00;13.63;;;;;;;;;;5031410;28;20277;-59
2024/01/19 01:33:17;;;;;;;21.50;12.93;;;;;;;;;;5029556;28;20238;-59
2024/01/19 01:35:44;;;;;;;24.03;14.17;;;;;;;;;;5032171;28;20274;-60
2024/01/19 01:38:13;;;;;;;17.43;10.97;;;;;;;;;;5022624;28;20267;-59
2024/01/19 01:40:41;;;;;;;18.93;12.83;;;;;;;;;;5030820;28;20201;-59
2024/01/19 01:43:08;;;;;;;20.33;11.87;;;;;;;;;;5031844;28;20232;-59
2024/01/19 01:45:36;;;;;;;26.10;13.30;;;;;;;;;;5031332;28;20201;-59
2024/01/19 01:48:03;;;;;;;22.27;12.73;;;;;;;;;;5030449;28;20204;-60
2024/01/19 01:50:30;;;;;;;13.73;10.87;;;;;;;;;;5025194;28;20236;-59
2024/01/19 01:52:58;;;;;;;17.67;10.63;;;;;;;;;;5031692;28;20223;-59
2024/01/19 01:55:26;;;;;;;19.33;12.37;;;;;;;;;;5031748;28;20622;-59
2024/01/19 01:57:53;;;;;;;18.50;11.77;;;;;;;;;;5028815;28;20203;-59
2024/01/19 02:00:21;;;;;;;16.30;10.20;;;;;;;;;;5032091;28;20646;-59
2024/01/19 02:02:48;;;;;;;17.53;9.57;;;;;;;;;;5030395;28;20227;-59
2024/01/19 02:05:15;;;;;;;18.20;9.77;;;;;;;;;;5024363;28;20243;-59
2024/01/19 02:07:43;;;;;;;12.47;9.27;;;;;;;;;;5033166;28;20271;-59
2024/01/19 02:10:10;;;;;;;14.83;8.83;;;;;;;;;;5031496;28;20557;-59
2024/01/19 02:12:39;;;;;;;11.53;8.53;;;;;;;;;;5029938;28;20727;-59
2024/01/19 02:15:07;;;;;;;18.13;9.77;;;;;;;;;;5030524;28;20204;-59
2024/01/19 02:17:34;;;;;;;10.30;8.10;;;;;;;;;;5031837;28;20262;-59
2024/01/19 02:20:01;;;;;;;10.90;8.47;;;;;;;;;;5031938;28;20243;-59
2024/01/19 02:22:30;;;;;;;13.07;8.37;;;;;;;;;;5030878;28;20286;-59
2024/01/19 02:24:59;;;;;;;15.43;8.77;;;;;;;;;;5031914;28;20205;-59
2024/01/19 02:27:26;;;;;;;16.93;9.93;;;;;;;;;;5029947;28;20302;-59
2024/01/19 02:29:54;;;;;;;11.83;7.73;;;;;;;;;;5031510;28;20200;-59
2024/01/19 02:32:21;;;;;;;12.27;9.83;;;;;;;;;;5030514;28;20224;-59
2024/01/19 02:34:48;;;;;;;14.53;9.23;;;;;;;;;;5031237;28;20199;-59
2024/01/19 02:37:16;;;;;;;15.13;9.03;;;;;;;;;;5026092;28;20246;-59
2024/01/19 02:39:43;;;;;;;15.57;9.43;;;;;;;;;;5031192;28;20202;-59
2024/01/19 02:42:14;;;;;;;16.57;9.40;;;;;;;;;;5031007;28;20239;-59
2024/01/19 02:44:41;;;;;;;17.50;11.27;;;;;;;;;;5031023;28;20220;-59
2024/01/19 02:47:08;;;;;;;21.60;10.07;;;;;;;;;;5031182;28;20207;-59
2024/01/19 02:49:35;;;;;;;11.70;9.37;;;;;;;;;;5031282;28;20676;-59
2024/01/19 02:52:03;;;;;;;15.97;9.60;;;;;;;;;;5028767;28;20322;-59
2024/01/19 02:54:30;;;;;;;16.77;9.27;;;;;;;;;;5031051;28;20221;-60
2024/01/19 02:56:57;;;;;;;13.33;8.40;;;;;;;;;;5032994;28;20199;-59
2024/01/19 02:59:28;;;;;;;12.60;8.30;;;;;;;;;;5034651;28;20559;-59
2024/01/19 03:01:55;;;;;;;14.40;8.27;;;;;;;;;;5032123;28;20285;-59
2024/01/19 03:04:23;;;;;;;14.17;8.37;;;;;;;;;;5027786;28;20271;-60
2024/01/19 03:06:50;;;;;;;13.13;7.50;;;;;;;;;;5025776;28;20201;-59
2024/01/19 03:09:17;;;;;;;11.13;8.03;;;;;;;;;;5026931;28;20288;-59
2024/01/19 03:11:44;;;;;;;14.53;6.40;;;;;;;;;;5033712;28;20728;-59
2024/01/19 03:14:12;;;;;;;17.53;8.50;;;;;;;;;;5033998;28;20201;-59
2024/01/19 03:16:43;;;;;;;14.60;6.70;;;;;;;;;;5034373;28;20209;-59
2024/01/19 03:19:10;;;;;;;11.43;6.70;;;;;;;;;;5031700;28;20987;-59
2024/01/19 03:21:38;;;;;;;14.83;8.23;;;;;;;;;;5033523;28;20722;-59
2024/01/19 03:24:05;;;;;;;16.67;8.57;;;;;;;;;;5032112;28;20221;-59
2024/01/19 03:26:32;;;;;;;14.63;9.20;;;;;;;;;;5034387;28;20198;-59
2024/01/19 03:29:00;;;;;;;15.50;8.97;;;;;;;;;;5034234;28;20213;-59
2024/01/19 03:31:27;;;;;;;20.60;7.80;;;;;;;;;;5032637;28;20247;-59
2024/01/19 03:33:55;;;;;;;11.80;7.20;;;;;;;;;;5033842;28;20277;-59
2024/01/19 03:36:23;;;;;;;11.57;7.57;;;;;;;;;;5034327;28;20203;-59
2024/01/19 03:38:50;;;;;;;16.87;7.87;;;;;;;;;;5033967;28;20215;-59
2024/01/19 03:41:17;;;;;;;12.00;8.23;;;;;;;;;;5033351;28;20713;-59
2024/01/19 03:43:45;;;;;;;10.23;6.30;;;;;;;;;;5033090;28;20220;-60
2024/01/19 03:46:12;;;;;;;7.83;6.27;;;;;;;;;;5025833;28;20203;-60
2024/01/19 03:48:39;;;;;;;10.17;6.03;;;;;;;;;;5034175;28;20618;-60
2024/01/19 03:51:08;;;;;;;15.93;7.73;;;;;;;;;;5032666;28;20676;-60
2024/01/19 03:53:35;;;;;;;8.40;5.63;;;;;;;;;;5033083;28;20641;-60
2024/01/19 03:56:02;;;;;;;6.23;4.93;;;;;;;;;;5032900;28;20667;-60
2024/01/19 03:58:30;;;;;;;8.07;5.77;;;;;;;;;;5027709;28;20263;-60
2024/01/19 04:00:57;;;;;;;11.37;5.43;;;;;;;;;;5013335;28;20268;-60
2024/01/19 04:03:24;;;;;;;10.87;6.23;;;;;;;;;;5014073;28;20815;-60
2024/01/19 04:05:51;;;;;;;11.33;5.50;;;;;;;;;;5013922;28;20255;-60
2024/01/19 04:08:20;;;;;;;14.37;6.50;;;;;;;;;;5030197;28;20200;-60
2024/01/19 04:10:47;;;;;;;9.13;6.43;;;;;;;;;;5033127;28;20259;-60
2024/01/19 04:13:14;;;;;;;12.07;6.90;;;;;;;;;;5022405;28;20271;-60
2024/01/19 04:15:42;;;;;;;8.13;6.50;;;;;;;;;;5014823;28;20263;-59
2024/01/19 04:18:09;;;;;;;13.47;7.63;;;;;;;;;;5033581;28;20205;-60
2024/01/19 04:20:37;;;;;;;8.63;6.50;;;;;;;;;;5031808;28;20203;-60
2024/01/19 04:23:04;;;;;;;12.43;7.90;;;;;;;;;;5026741;28;20220;-60
2024/01/19 04:25:32;;;;;;;13.33;7.83;;;;;;;;;;5033226;28;20206;-60
2024/01/19 04:27:59;;;;;;;18.97;8.80;;;;;;;;;;5032652;28;20204;-60
2024/01/19 04:30:27;;;;;;;10.23;7.97;;;;;;;;;;5032406;28;20204;-60
2024/01/19 04:32:54;;;;;;;11.93;8.00;;;;;;;;;;5033101;28;20279;-60
2024/01/19 04:35:21;;;;;;;13.77;7.90;;;;;;;;;;5032166;28;20581;-60
2024/01/19 04:37:48;;;;;;;13.13;8.70;;;;;;;;;;5033019;28;20843;-60
2024/01/19 04:40:16;;;;;;;13.40;7.93;;;;;;;;;;5032392;28;20261;-60
2024/01/19 04:42:44;;;;;;;11.97;7.83;;;;;;;;;;5032162;28;20221;-60
2024/01/19 04:45:12;;;;;;;13.47;7.83;;;;;;;;;;5032998;28;20224;-60
2024/01/19 04:47:39;;;;;;;17.13;7.57;;;;;;;;;;5025101;28;20197;-60
2024/01/19 04:50:07;;;;;;;10.30;7.10;;;;;;;;;;5031356;28;20291;-60
2024/01/19 04:52:34;;;;;;;13.60;8.60;;;;;;;;;;5031498;28;20229;-60
2024/01/19 04:55:02;;;;;;;11.77;7.70;;;;;;;;;;5032562;28;20201;-60
2024/01/19 04:57:29;;;;;;;16.13;8.70;;;;;;;;;;5032326;28;20318;-60
2024/01/19 04:59:57;;;;;;;12.10;9.40;;;;;;;;;;5022592;28;20213;-60
2024/01/19 05:02:25;;;;;;;16.47;8.63;;;;;;;;;;5031451;28;20801;-60
2024/01/19 05:04:52;;;;;;;14.27;7.83;;;;;;;;;;5031056;28;20295;-60
2024/01/19 05:07:20;;;;;;;13.17;7.70;;;;;;;;;;5023559;28;20198;-60
2024/01/19 05:09:47;;;;;;;13.83;8.43;;;;;;;;;;5032523;28;20202;-60
2024/01/19 05:12:16;;;;;;;12.53;8.33;;;;;;;;;;5030582;28;20224;-60
2024/01/19 05:14:43;;;;;;;15.60;7.40;;;;;;;;;;5032272;28;20189;-60
2024/01/19 05:17:13;;;;;;;14.43;8.10;;;;;;;;;;5027426;28;20205;-60
2024/01/19 05:19:41;;;;;;;15.73;7.93;;;;;;;;;;5031713;28;20209;-60
2024/01/19 05:22:11;;;;;;;15.33;8.50;;;;;;;;;;5031406;28;20646;-60
2024/01/19 05:24:41;;;;;;;14.33;8.70;;;;;;;;;;5028360;28;20221;-60
2024/01/19 05:27:10;;;;;;;11.33;8.10;;;;;;;;;;5032539;28;20291;-60
2024/01/19 05:29:38;;;;;;;11.73;8.07;;;;;;;;;;5031526;28;20205;-59
2024/01/19 05:32:06;;;;;;;13.20;7.93;;;;;;;;;;5030708;28;20783;-60
2024/01/19 05:34:34;;;;;;;11.90;7.67;;;;;;;;;;5031997;28;20198;-60
2024/01/19 05:37:01;;;;;;;16.23;7.90;;;;;;;;;;5032340;28;20201;-60
2024/01/19 05:39:29;;;;;;;17.70;8.10;;;;;;;;;;5032066;28;20633;-59
2024/01/19 05:41:56;;;;;;;13.63;8.87;;;;;;;;;;5031751;28;20252;-60
2024/01/19 05:44:24;;;;;;;11.10;8.00;;;;;;;;;;5028532;28;20223;-59
2024/01/19 05:46:51;;;;;;;17.57;8.73;;;;;;;;;;5030118;28;20202;-60
2024/01/19 05:49:18;;;;;;;13.47;8.03;;;;;;;;;;5023508;28;20199;-60
2024/01/19 05:51:47;;;;;;;12.50;8.43;;;;;;;;;;5023750;28;20227;-59
2024/01/19 05:54:14;;;;;;;13.23;7.30;;;;;;;;;;5030524;28;20265;-60
2024/01/19 05:56:41;;;;;;;12.20;7.47;;;;;;;;;;5031509;28;20204;-60
2024/01/19 05:59:08;;;;;;;15.77;7.37;;;;;;;;;;5030456;28;20213;-60
2024/01/19 06:01:36;;;;;;;10.27;6.53;;;;;;;;;;5023199;28;20202;-60
2024/01/19 06:04:03;;;;;;;10.43;6.17;;;;;;;;;;5013172;28;20225;-60
2024/01/19 06:06:30;;;;;;;9.53;6.53;;;;;;;;;;5030523;28;20222;-60
2024/01/19 06:08:59;;;;;;;10.63;7.80;;;;;;;;;;5028735;28;20575;-60
2024/01/19 06:11:26;;;;;;;12.37;7.30;;;;;;;;;;5029005;28;20204;-60
2024/01/19 06:13:53;;;;;;;13.43;7.57;;;;;;;;;;5030202;28;20295;-60
2024/01/19 06:16:21;;;;;;;11.10;6.80;;;;;;;;;;5028339;28;20204;-60
2024/01/19 06:18:48;;;;;;;12.20;7.53;;;;;;;;;;5023595;28;20561;-60
2024/01/19 06:21:15;;;;;;;14.80;7.53;;;;;;;;;;5028841;28;20263;-59
2024/01/19 06:23:43;;;;;;;10.95;8.18;;;;;;;;;;5024136;28;20437;-61
2024/01/19 06:26:12;;;;;;;9.67;7.10;;;;;;;;;;5029093;28;20295;-65
2024/01/19 06:28:40;;;;;;;11.77;6.73;;;;;;;;;;5029761;28;20228;-58
2024/01/19 06:31:10;;;;;;;9.33;6.77;;;;;;;;;;5030845;28;20292;-59
2024/01/19 06:33:37;;;;;;;9.20;6.60;;;;;;;;;;5033349;28;20259;-61
2024/01/19 06:36:08;;;;;;;14.60;7.77;;;;;;;;;;5033201;28;20290;-60
2024/01/19 06:38:35;;;;;;;10.60;6.53;;;;;;;;;;5029658;28;20250;-59
2024/01/19 06:41:04;;;;;;;10.50;6.50;;;;;;;;;;5032848;28;20282;-58
2024/01/19 06:43:32;;;;;;;11.13;6.77;;;;;;;;;;5033446;28;20225;-57
2024/01/19 06:46:00;;;;;;;12.37;7.17;;;;;;;;;;5027451;28;20205;-58
2024/01/19 06:48:27;;;;;;;11.87;6.77;;;;;;;;;;5026017;28;20209;-60
2024/01/19 06:50:54;;;;;;;11.23;8.07;;;;;;;;;;5025784;28;20203;-60
2024/01/19 06:53:21;;;;;;;13.10;6.93;;;;;;;;;;5026161;28;20221;-61
2024/01/19 06:55:49;;;;;;;10.17;6.33;;;;;;;;;;5023545;28;20201;-59
2024/01/19 06:58:16;;;;;;;7.97;6.00;;;;;;;;;;5024088;28;20232;-58
2024/01/19 07:00:45;;;;;;;10.70;6.03;;;;;;;;;;5027905;28;20588;-59
2024/01/19 07:03:12;;;;;;;9.13;6.03;;;;;;;;;;5026722;28;20232;-61
2024/01/19 07:05:42;;;;;;;11.00;7.33;;;;;;;;;;5024563;28;20223;-63
2024/01/19 07:08:09;;;;;;;11.53;7.53;;;;;;;;;;5021128;28;20227;-66
2024/01/19 07:10:37;;;;;;;10.47;6.57;;;;;;;;;;5030220;28;20202;-65
2024/01/19 07:13:04;;;;;;;13.07;7.90;;;;;;;;;;5021490;28;20238;-63
2024/01/19 07:15:31;;;;;;;9.30;6.77;;;;;;;;;;5022803;28;20583;-59
2024/01/19 07:18:00;;;;;;;13.20;7.57;;;;;;;;;;5022894;28;20209;-70
2024/01/19 07:20:27;;;;;;;13.90;7.67;;;;;;;;;;5027580;28;20205;-69
2024/01/19 07:22:55;;;;;;;15.33;8.13;;;;;;;;;;5023525;28;20655;-72
2024/01/19 07:25:22;;;;;;;13.43;7.40;;;;;;;;;;5022728;28;20220;-64
2024/01/19 07:27:49;;;;;;;11.53;6.63;;;;;;;;;;5021194;28;20796;-63
2024/01/19 07:30:17;;;;;;;13.00;7.33;;;;;;;;;;5019822;28;20213;-62
2024/01/19 07:32:44;;;;;;;11.13;7.10;;;;;;;;;;5018965;28;20232;-63
2024/01/19 07:35:13;;;;;;;12.47;6.87;;;;;;;;;;5023473;28;22145;-63
2024/01/19 07:37:40;;;;;;;11.00;7.40;;;;;;;;;;5022584;28;20767;-64
2024/01/19 07:40:08;;;;;;;11.97;6.60;;;;;;;;;;5028143;28;20323;-64
2024/01/19 07:42:35;;;;;;;11.57;6.70;;;;;;;;;;5019532;28;20225;-65
2024/01/19 07:45:02;;;;;;;10.40;6.87;;;;;;;;;;5020455;28;20220;-61
2024/01/19 07:47:32;;;;;;;14.87;8.23;;;;;;;;;;5023061;28;20249;-65
2024/01/19 07:49:59;;;;;;;8.77;5.37;;;;;;;;;;5026328;28;20299;-63
2024/01/19 07:52:28;;;;;;;11.50;6.57;;;;;;;;;;5027009;28;20234;-62
2024/01/19 07:54:55;;;;;;;10.73;5.93;;;;;;;;;;5023791;28;20204;-64
2024/01/19 07:57:22;;;;;;;11.17;6.13;;;;;;;;;;5032770;28;20219;-68
2024/01/19 07:59:49;;;;;;;12.33;6.97;;;;;;;;;;5029251;28;20230;-63
2024/01/19 08:02:17;;;;;;;6.97;5.57;;;;;;;;;;5021716;28;20746;-64
2024/01/19 08:04:44;;;;;;;6.23;5.43;;;;;;;;;;5022313;28;21343;-64
2024/01/19 08:07:12;;;;;;;6.70;5.57;;;;;;;;;;5022457;28;20234;-64
2024/01/19 08:09:40;;;;;;;14.13;7.90;;;;;;;;;;5021875;28;20195;-63
2024/01/19 08:12:08;;;;;;;10.40;7.00;;;;;;;;;;5024335;28;20799;-65
2024/01/19 08:14:35;;;;;;;10.20;6.57;;;;;;;;;;5022520;28;20211;-64
2024/01/19 08:17:02;;;;;;;6.73;5.83;;;;;;;;;;5021213;28;20212;-65
2024/01/19 08:19:30;;;;;;;10.63;6.00;;;;;;;;;;5023024;28;20210;-64
2024/01/19 08:21:57;;;;;;;9.33;6.70;;;;;;;;;;5021253;28;20256;-62
2024/01/19 08:24:24;;;;;;;9.70;5.97;;;;;;;;;;5028961;28;20213;-61
2024/01/19 08:26:53;;;;;;;10.00;5.80;;;;;;;;;;5023032;28;20199;-64
2024/01/19 08:29:21;;;;;;;9.93;5.67;;;;;;;;;;5022610;28;20230;-63
2024/01/19 08:31:52;;;;;;;8.37;5.70;;;;;;;;;;5021082;28;20642;-63
2024/01/19 08:34:19;;;;;;;7.17;5.83;;;;;;;;;;5019576;28;20214;-62
2024/01/19 08:36:46;;;;;;;5.37;4.80;;;;;;;;;;5026853;28;20212;-66
2024/01/19 08:39:14;;;;;;;5.33;4.60;;;;;;;;;;5021870;28;20629;-62
2024/01/19 08:41:42;;;;;;;10.77;4.77;;;;;;;;;;5027754;28;20223;-63
2024/01/19 08:44:11;;;;;;;8.70;5.33;;;;;;;;;;5023274;28;20703;-61
2024/01/19 08:46:43;;;;;;;5.37;4.30;;;;;;;;;;5032748;28;20293;-69
2024/01/19 08:49:11;;;;;;;8.23;4.93;;;;;;;;;;5024433;28;21139;-61
2024/01/19 08:51:38;;;;;;;8.90;4.97;;;;;;;;;;5020151;28;20235;-60
2024/01/19 08:54:06;;;;;;;6.53;4.20;;;;;;;;;;5021825;28;20657;-61
2024/01/19 08:56:33;;;;;;;7.77;4.30;;;;;;;;;;5022819;28;20261;-58
2024/01/19 08:59:00;;;;;;;5.67;3.93;;;;;;;;;;5026304;28;20757;-59
2024/01/19 09:01:31;;;;;;;7.63;4.60;;;;;;;;;;5021880;28;20305;-58
2024/01/19 09:03:58;;;;;;;5.37;4.77;;;;;;;;;;5022170;28;20207;-59
2024/01/19 09:06:25;;;;;;;8.43;4.70;;;;;;;;;;5023876;28;20224;-60
2024/01/19 09:08:54;;;;;;;7.53;5.47;;;;;;;;;;5026614;28;20285;-60
2024/01/19 09:11:21;;;;;;;8.50;4.47;;;;;;;;;;5021253;28;20684;-59
2024/01/19 09:13:49;;;;;;;6.53;4.57;;;;;;;;;;5029010;28;20205;-62
2024/01/19 09:16:16;;;;;;;5.00;4.30;;;;;;;;;;5028021;28;20286;-63
2024/01/19 09:18:45;;;;;;;4.00;3.47;;;;;;;;;;5022153;28;20697;-69
2024/01/19 09:21:17;;;;;;;6.93;4.80;;;;;;;;;;5020159;28;20279;-63
2024/01/19 09:23:44;;;;;;;9.10;3.83;;;;;;;;;;5022148;28;20212;-63
2024/01/19 09:26:18;;;;;;;7.90;3.63;;;;;;;;;;5018957;28;20717;-64
2024/01/19 09:28:45;;;;;;;7.20;5.23;;;;;;;;;;5020575;28;20214;-57
2024/01/19 09:31:13;;;;;;;5.33;3.67;;;;;;;;;;5020880;28;20205;-58
2024/01/19 09:33:40;;;;;;;6.83;4.13;;;;;;;;;;5025264;28;20246;-58
2024/01/19 09:36:09;;;;;;;5.23;3.20;;;;;;;;;;5027751;28;20334;-58
2024/01/19 09:38:37;;;;;;;3.67;3.27;;;;;;;;;;5027895;28;20277;-57
2024/01/19 09:41:07;;;;;;;3.90;3.17;;;;;;;;;;5025627;28;20336;-58
2024/01/19 09:43:35;;;;;;;4.20;3.67;;;;;;;;;;5023851;28;20224;-58
2024/01/19 09:46:05;;;;;;;4.47;3.20;;;;;;;;;;5026062;28;20223;-58
2024/01/19 09:48:35;;;;;;;6.03;3.23;;;;;;;;;;5031104;28;20684;-58
2024/01/19 09:51:07;;;;;;;4.33;3.93;;;;;;;;;;5028396;28;20252;-58
2024/01/19 09:53:38;;;;;;;10.40;3.43;;;;;;;;;;5026110;28;20273;-58
2024/01/19 09:56:07;;;;;;;6.57;3.30;;;;;;;;;;5030345;28;20200;-58
2024/01/19 09:58:35;;;;;;;3.50;3.30;;;;;;;;;;5022515;28;20231;-58
2024/01/19 10:01:02;;;;;;;5.63;3.90;;;;;;;;;;5029831;28;20208;-58
2024/01/19 10:03:29;;;;;;;4.23;3.37;;;;;;;;;;5019988;28;20244;-58
2024/01/19 10:05:57;;;;;;;4.27;3.97;;;;;;;;;;5020271;28;20660;-58
2024/01/19 10:08:24;;;;;;;5.00;2.90;;;;;;;;;;5025485;28;20465;-58
2024/01/19 10:10:54;;;;;;;5.40;3.10;;;;;;;;;;5029541;28;20239;-58
2024/01/19 10:13:21;;;;;;;6.47;3.23;;;;;;;;;;5031125;28;20311;-58
2024/01/19 10:15:48;;;;;;;4.23;2.90;;;;;;;;;;5030770;28;20241;-58
2024/01/19 10:18:16;;;;;;;4.80;3.20;;;;;;;;;;5021355;28;20204;-58
2024/01/19 10:20:44;;;;;;;4.70;2.80;;;;;;;;;;5024461;28;20201;-58
2024/01/19 10:23:19;;;;;;;5.43;4.40;;;;;;;;;;5029910;28;20599;-57
2024/01/19 10:25:47;;;;;;;5.47;4.10;;;;;;;;;;5030191;28;20228;-58
2024/01/19 10:28:29;;;;;;;4.90;3.43;;;;;;;;;;5030392;28;20200;-57
2024/01/19 10:31:13;;;;;;;4.47;2.97;;;;;;;;;;5022588;28;20319;-58
2024/01/19 10:33:48;;;;;;;3.30;3.07;;;;;;;;;;5018984;28;20275;-58
2024/01/19 10:36:16;;;;;;;5.00;2.43;;;;;;;;;;5021456;28;20282;-58
2024/01/19 10:38:43;;;;;;;2.60;2.33;;;;;;;;;;5024915;28;20198;-58
2024/01/19 10:41:15;;;;;;;3.53;2.27;;;;;;;;;;5028350;28;20259;-58
2024/01/19 10:43:43;;;;;;;3.07;2.57;;;;;;;;;;5020114;28;20216;-58
2024/01/19 10:46:21;;;;;;;2.73;2.30;;;;;;;;;;5017250;28;20267;-58
2024/01/19 10:48:50;;;;;;;3.53;2.60;;;;;;;;;;5027354;28;20549;-59
2024/01/19 10:51:18;;;;;;;1.57;1.47;;;;;;;;;;5020093;28;20211;-62
2024/01/19 10:53:46;;;;;;;4.67;2.07;;;;;;;;;;5023432;28;20204;-61
2024/01/19 10:56:19;;;;;;;1.60;1.50;;;;;;;;;;5029941;28;20232;-59
2024/01/19 10:58:47;;;;;;;1.87;1.77;;;;;;;;;;5029547;28;20200;-61
2024/01/19 11:01:15;;;;;;;2.93;1.83;;;;;;;;;;5026359;28;20632;-64
2024/01/19 11:03:43;;;;;;;4.40;2.07;;;;;;;;;;5023282;28;20307;-63
2024/01/19 11:06:10;;;;;;;2.40;2.30;;;;;;;;;;5029263;28;20307;-64
2024/01/19 11:08:38;;;;;;;4.30;3.87;;;4.80;99.90;;;;;;5021918;28;20240;-58
2024/01/19 11:11:06;;;;;;;5.80;3.47;;;;;;;;;;5028781;28;20630;-61
2024/01/19 11:13:37;;;;;;;3.13;2.87;;;4.90;99.90;;;;;;5021398;28;20252;-60
2024/01/19 11:16:11;;;;;;;3.07;2.43;;;5.00;99.90;;;;;;5025905;28;20627;-61
2024/01/19 11:18:39;;;;;;;2.13;1.87;;;4.80;99.90;;;;;;5029881;28;20217;-61
2024/01/19 11:21:07;;;;;;;2.60;2.33;;;4.70;99.90;;;;;;5032717;28;20718;-62
2024/01/19 11:23:35;;;;;;;2.43;2.17;;;;;;;;;;5025284;28;20279;-61
2024/01/19 11:26:14;;;;;;;4.17;2.37;;;4.80;99.90;;;;;;5032705;28;20215;-60
2024/01/19 11:28:46;;;;;;;2.57;2.37;;;;;;;;;;5026669;28;20197;-59
2024/01/19 11:31:16;;;;;;;2.10;1.90;;;;;;;;;;5025830;28;20197;-59
2024/01/19 11:33:44;;;;;;;7.43;2.47;;;;;;;;;;5027361;28;20217;-58
2024/01/19 11:36:11;;;;;;;2.00;1.90;;;3.90;99.90;;;;;;5025968;28;20196;-58
2024/01/19 11:38:46;;;;;;;3.73;2.90;;;3.50;99.90;;;;;;5029248;28;20630;-58
2024/01/19 11:41:48;;;;;;;2.60;2.50;;;3.40;99.90;;;;;;5028980;28;20207;-58
2024/01/19 11:44:34;;;;;;;2.17;2.07;;;;;;;;;;5023346;28;20206;-57
2024/01/19 11:47:02;;;;;;;5.30;2.83;;;3.30;99.90;;;;;;5023654;28;20223;-58
2024/01/19 11:49:48;;;;;;;2.70;2.27;;;;;;;;;;5024761;28;20200;-58
2024/01/19 11:52:35;;;;;;;2.63;2.43;;;;;;;;;;5023952;28;20302;-58
2024/01/19 11:55:17;;;;;;;3.30;3.00;;;;;;;;;;5022138;28;20204;-58
2024/01/19 11:57:45;;;;;;;3.17;2.73;;;;;;;;;;5022511;28;20254;-58
2024/01/19 12:00:13;;;;;;;2.17;2.00;;;;;;;;;;5022569;28;20208;-58
2024/01/19 12:02:42;;;;;;;6.23;2.03;;;;;;;;;;5029832;28;20232;-61
2024/01/19 12:05:10;;;;;;;2.47;1.57;;;;;;;;;;5024534;28;20211;-61
2024/01/19 12:07:39;;;;;;;1.80;1.70;;;;;;;;;;5019514;28;20699;-62
2024/01/19 12:10:07;;;;;;;1.90;1.63;;;;;;;;;;5020716;28;20205;-62
2024/01/19 12:12:34;;;;;;;4.17;1.93;;;;;;;;;;5020819;28;20228;-64
2024/01/19 12:15:02;;;;;;;2.20;2.10;;;;;;;;;;5022230;28;20806;-61
2024/01/19 12:17:30;;;;;;;2.67;2.47;;;;;;;;;;5027390;28;20363;-61
2024/01/19 12:19:59;;;;;;;3.13;2.30;;;;;;;;;;5021498;28;20221;-63
2024/01/19 12:22:26;;;;;;;2.77;2.00;;;;;;;;;;5020640;28;20732;-61
2024/01/19 12:24:53;;;;;;;4.17;2.27;;;;;;;;;;5027105;28;20703;-61
2024/01/19 12:27:21;;;;;;;3.03;1.60;;;;;;;;;;5026000;28;20431;-61
2024/01/19 12:29:48;;;;;;;2.73;1.93;;;;;;;;;;5022744;28;20200;-61
2024/01/19 12:32:18;;;;;;;1.63;1.53;;;;;;;;;;5024056;28;20728;-61
2024/01/19 12:34:57;;;;;;;2.20;1.40;;;;;;;;;;5025767;28;21337;-61
2024/01/19 12:37:26;;;;;;;2.83;1.20;;;;;;;;;;5020678;28;20611;-63
2024/01/19 12:39:53;;;;;;;2.70;1.90;;;;;;;;;;5022095;28;20209;-64
2024/01/19 12:42:21;;;;;;;4.87;1.97;;;;;;;;;;5020766;28;20309;-62
2024/01/19 12:44:49;;;;;;;3.33;1.70;;;;;;;;;;5022313;28;20204;-61
2024/01/19 12:47:19;;;;;;;2.20;2.00;;;;;;;;;;5023426;28;20216;-63
2024/01/19 12:49:47;;;;;;;2.67;1.73;;;;;;;;;;5026698;28;20249;-61
2024/01/19 12:52:16;;;;;;;3.50;2.10;;;;;;;;;;5021257;28;20662;-61
2024/01/19 12:54:45;;;;;;;4.60;2.67;;;;;;;;;;5021325;28;21003;-62
2024/01/19 12:57:17;;;;;;;2.07;1.73;;;;;;;;;;5021639;28;20200;-62
2024/01/19 12:59:44;;;;;;;1.60;1.50;;;;;;;;;;5021996;28;20207;-60
2024/01/19 13:02:11;;;;;;;3.70;1.70;;;;;;;;;;5019553;28;20219;-62
2024/01/19 13:04:39;;;;;;;3.27;1.57;;;;;;;;;;5025058;28;20203;-59
2024/01/19 13:07:06;;;;;;;2.53;1.53;;;;;;;;;;5026875;28;20220;-61
2024/01/19 13:09:33;;;;;;;1.57;1.33;;;;;;;;;;5030939;28;20204;-60
2024/01/19 13:12:13;;;;;;;1.73;1.40;;;;;;;;;;5030648;28;20277;-60
2024/01/19 13:14:40;;;;;;;0.97;0.97;;;;;;;;;;5021725;28;20262;-62
2024/01/19 13:17:07;;;;;;;1.13;1.10;;;;;;;;;;5024329;28;20275;-60
2024/01/19 13:19:44;;;;;;;1.57;1.00;;;;;;;;;;5030469;28;20212;-62
2024/01/19 13:22:11;;;;;;;1.33;1.00;;;;;;;;;;5029083;28;20297;-61
2024/01/19 13:24:38;;;;;;;1.27;0.53;;;;;;;;;;5031147;28;20199;-63
2024/01/19 13:27:06;;;;;;;0.80;0.80;;;;;;;;;;5032817;28;20287;-61
2024/01/19 13:29:34;;;;;;;3.70;0.53;;;;;;;;;;5027550;28;20216;-61
2024/01/19 13:32:02;;;;;;;1.03;0.73;;;;;;;;;;5027598;28;20232;-61
2024/01/19 13:34:29;;;;;;;2.63;0.80;;;;;;;;;;5027180;28;20199;-61
2024/01/19 13:36:56;;;;;;;0.87;0.80;;;;;;;;;;5029685;28;20201;-61
2024/01/19 13:39:23;;;;;;;1.47;0.53;;;;;;;;;;5029544;28;20197;-62
2024/01/19 13:41:51;;;;;;;1.23;0.63;;;;;;;;;;5023152;28;20243;-62
2024/01/19 13:44:18;;;;;;;1.00;0.57;;;;;;;;;;5030566;28;20214;-62
2024/01/19 13:46:47;;;;;;;0.53;0.53;;;;;;;;;;5028356;28;20270;-62
2024/01/19 13:49:14;;;;;;;0.70;0.70;;;;;;;;;;5025467;28;20259;-61
2024/01/19 13:51:41;;;;;;;2.10;1.23;;;;;;;;;;5030790;28;20265;-61
2024/01/19 13:54:08;;;;;;;1.50;0.70;;;2.20;99.90;;;;;;5021875;28;20263;-61
2024/01/19 13:56:35;;;;;;;2.70;1.27;;;;;;;;;;5023908;28;20200;-65
2024/01/19 13:59:02;;;;;;;1.10;0.60;;;;;;;;;;5030716;28;20237;-59
2024/01/19 14:01:30;;;;;;;1.07;0.63;;;;;;;;;;5026931;28;20277;-60
2024/01/19 14:03:58;;;;;;;1.30;1.20;;;;;;;;;;5029214;28;20200;-57
2024/01/19 14:06:25;;;;;;;0.63;0.63;;;;;;;;;;5027998;28;20250;-58
2024/01/19 14:08:53;;;;;;;1.97;1.00;;;;;;;;;;5028015;28;20200;-61
2024/01/19 14:11:20;;;;;;;3.63;2.17;;;;;;;;;;5027829;28;20729;-68
2024/01/19 14:13:48;;;;;;;6.87;3.63;;;;;;;;;;5028157;28;20240;-64
2024/01/19 14:16:16;;;;;;;8.33;2.27;;;1.60;99.90;;;;;;5029857;28;20202;-66
2024/01/19 14:18:43;;;;;;;3.10;1.80;;;;;;;;;;5024838;28;20203;-63
2024/01/19 14:21:11;;;;;;;3.77;1.70;;;1.30;99.90;;;;;;5024590;28;20262;-64
2024/01/19 14:23:38;;;;;;;2.30;1.70;;;;;;;;;;5022340;28;20223;-64
2024/01/19 14:26:05;;;;;;;1.43;1.10;;;;;;;;;;5024131;28;20231;-62
2024/01/19 14:28:33;;;;;;;1.90;1.33;;;;;;;;;;5020439;28;20709;-62
2024/01/19 14:31:00;;;;;;;1.20;1.10;;;;;;;;;;5024239;28;20201;-64
2024/01/19 14:33:27;;;;;;;1.53;1.27;;;;;;;;;;5022434;28;20300;-63
2024/01/19 14:35:54;;;;;;;1.63;1.47;;;;;;;;;;5026661;28;20275;-63
2024/01/19 14:38:23;;;;;;;0.90;0.90;;;;;;;;;;5027843;28;20197;-63